createdAt,value
2024-03-08T00:00:20.530Z,1.77
2024-03-08T00:02:52.469Z,1.75
2024-03-08T00:05:20.570Z,1.60
2024-03-08T00:07:48.945Z,1.61
2024-03-08T00:10:18.187Z,1.53
2024-03-08T00:12:47.512Z,1.49
2024-03-08T00:15:20.177Z,1.39
2024-03-08T00:17:49.432Z,1.60
2024-03-08T00:20:19.661Z,1.59
2024-03-08T00:22:48.351Z,1.59
2024-03-08T00:25:17.236Z,1.66
2024-03-08T00:27:45.324Z,1.69
2024-03-08T00:30:14.924Z,1.73
2024-03-08T00:32:44.861Z,1.75
2024-03-08T00:35:13.669Z,1.83
2024-03-08T00:37:43.399Z,1.84
2024-03-08T00:40:12.106Z,1.81
2024-03-08T00:42:41.428Z,1.84
2024-03-08T00:45:11.387Z,1.74
2024-03-08T00:47:40.277Z,1.68
2024-03-08T00:50:10.579Z,1.68
2024-03-08T00:52:38.759Z,1.70
2024-03-08T00:55:07.371Z,1.68
2024-03-08T00:57:35.097Z,1.67
2024-03-08T01:00:06.712Z,1.56
2024-03-08T01:02:36.715Z,1.40
2024-03-08T01:05:08.433Z,1.41
2024-03-08T01:07:37.965Z,1.39
2024-03-08T01:10:10.953Z,1.27
2024-03-08T01:12:39.006Z,1.15
2024-03-08T01:15:08.157Z,1.10
2024-03-08T01:17:36.581Z,1.01
2024-03-08T01:20:05.062Z,0.96
2024-03-08T01:22:32.853Z,0.93
2024-03-08T01:25:01.899Z,0.88
2024-03-08T01:27:30.303Z,0.85
2024-03-08T01:29:58.130Z,0.78
2024-03-08T01:32:26.367Z,0.76
2024-03-08T01:34:54.401Z,0.68
2024-03-08T01:37:22.185Z,0.78
2024-03-08T01:39:50.453Z,0.72
2024-03-08T01:42:19.629Z,0.79
2024-03-08T01:44:47.721Z,0.78
2024-03-08T01:47:15.554Z,0.78
2024-03-08T01:49:43.407Z,0.84
2024-03-08T01:52:12.679Z,0.73
2024-03-08T01:54:42.397Z,0.74
2024-03-08T01:57:10.573Z,0.73
2024-03-08T01:59:40.144Z,0.69
2024-03-08T02:02:10.641Z,0.67
2024-03-08T02:04:39.874Z,0.62
2024-03-08T02:07:10.893Z,0.80
2024-03-08T02:09:39.383Z,0.88
2024-03-08T02:12:07.484Z,0.99
2024-03-08T02:14:41.262Z,1.00
2024-03-08T02:17:09.589Z,1.03
2024-03-08T02:19:37.613Z,1.08
2024-03-08T02:22:08.444Z,1.16
2024-03-08T02:24:36.715Z,1.13
2024-03-08T02:27:04.956Z,1.11
2024-03-08T02:29:35.418Z,1.09
2024-03-08T02:32:04.167Z,1.10
2024-03-08T02:34:33.405Z,1.07
2024-03-08T02:37:01.141Z,1.08
2024-03-08T02:39:30.589Z,1.05
2024-03-08T02:41:58.470Z,1.11
2024-03-08T02:44:26.289Z,1.17
2024-03-08T02:46:56.172Z,1.16
2024-03-08T02:49:24.209Z,1.20
2024-03-08T02:51:52.227Z,1.17
2024-03-08T02:54:20.515Z,1.23
2024-03-08T02:56:51.542Z,1.25
2024-03-08T02:59:20.193Z,1.13
2024-03-08T03:01:47.994Z,1.11
2024-03-08T03:04:16.060Z,1.05
2024-03-08T03:06:43.839Z,1.03
2024-03-08T03:09:12.112Z,0.92
2024-03-08T03:11:40.145Z,0.92
2024-03-08T03:14:10.240Z,0.78
2024-03-08T03:16:38.062Z,0.87
2024-03-08T03:19:06.841Z,0.85
2024-03-08T03:21:36.951Z,0.84
2024-03-08T03:24:06.370Z,0.80
2024-03-08T03:26:34.216Z,0.82
2024-03-08T03:29:04.366Z,0.76
2024-03-08T03:31:33.620Z,0.69
2024-03-08T03:34:04.109Z,0.64
2024-03-08T03:36:32.576Z,0.70
2024-03-08T03:39:12.014Z,0.70
2024-03-08T03:41:40.406Z,0.58
2024-03-08T03:44:08.663Z,0.61
2024-03-08T03:46:37.855Z,0.57
2024-03-08T03:49:05.898Z,0.52
2024-03-08T03:51:33.719Z,0.55
2024-03-08T03:54:01.982Z,0.60
2024-03-08T03:56:30.072Z,0.53
2024-03-08T03:58:58.140Z,0.63
2024-03-08T04:01:26.152Z,0.60
2024-03-08T04:03:55.610Z,0.68
2024-03-08T04:06:23.801Z,0.68
2024-03-08T04:08:52.082Z,0.68
2024-03-08T04:11:19.930Z,0.76
2024-03-08T04:13:47.934Z,0.78
2024-03-08T04:16:16.419Z,0.80
2024-03-08T04:18:44.902Z,0.67
2024-03-08T04:21:14.511Z,0.67
2024-03-08T04:23:42.612Z,0.69
2024-03-08T04:26:10.583Z,0.61
2024-03-08T04:28:40.682Z,0.57
2024-03-08T04:31:08.755Z,0.54
2024-03-08T04:33:36.976Z,0.53
2024-03-08T04:36:05.418Z,0.48
2024-03-08T04:38:34.663Z,0.63
2024-03-08T04:41:02.945Z,0.56
2024-03-08T04:43:31.655Z,0.54
2024-03-08T04:45:59.692Z,0.46
2024-03-08T04:48:27.964Z,0.42
2024-03-08T04:50:56.897Z,0.34
2024-03-08T04:53:25.229Z,0.33
2024-03-08T04:55:54.547Z,0.27
2024-03-08T04:58:22.579Z,0.21
2024-03-08T05:00:51.174Z,0.15
2024-03-08T05:03:18.959Z,0.15
2024-03-08T05:05:47.257Z,0.13
2024-03-08T05:08:15.064Z,0.06
2024-03-08T05:10:43.347Z,0.08
2024-03-08T05:13:14.073Z,0.02
2024-03-08T05:15:42.268Z,-0.01
2024-03-08T05:18:12.572Z,0.06
2024-03-08T05:20:42.378Z,0.12
2024-03-08T05:23:10.617Z,0.05
2024-03-08T05:25:38.504Z,0.04
2024-03-08T05:28:07.857Z,-0.04
2024-03-08T05:30:38.083Z,-0.13
2024-03-08T05:33:06.376Z,-0.08
2024-03-08T05:35:34.924Z,-0.13
2024-03-08T05:38:03.069Z,-0.11
2024-03-08T05:40:33.079Z,-0.18
2024-03-08T05:43:01.649Z,-0.17
2024-03-08T05:45:29.377Z,-0.17
2024-03-08T05:47:59.339Z,-0.13
2024-03-08T05:50:28.469Z,-0.20
2024-03-08T05:52:56.689Z,-0.16
2024-03-08T05:55:26.105Z,-0.13
2024-03-08T05:57:55.027Z,-0.08
2024-03-08T06:00:24.047Z,-0.09
2024-03-08T06:02:52.817Z,-0.09
2024-03-08T06:05:24.499Z,-0.11
2024-03-08T06:07:54.457Z,-0.07
2024-03-08T06:10:22.525Z,-0.08
2024-03-08T06:12:51.754Z,-0.06
2024-03-08T06:15:22.448Z,0.06
2024-03-08T06:17:50.714Z,0.07
2024-03-08T06:20:18.629Z,0.13
2024-03-08T06:22:48.303Z,0.29
2024-03-08T06:25:17.008Z,0.41
2024-03-08T06:27:44.796Z,0.54
2024-03-08T06:30:13.676Z,0.71
2024-03-08T06:32:43.984Z,0.83
2024-03-08T06:35:12.512Z,0.99
2024-03-08T06:37:40.566Z,1.18
2024-03-08T06:40:15.478Z,1.35
2024-03-08T06:42:43.930Z,1.50
2024-03-08T06:45:14.129Z,1.65
2024-03-08T06:47:43.153Z,1.80
2024-03-08T06:50:12.953Z,1.94
2024-03-08T06:52:41.284Z,2.03
2024-03-08T06:55:13.425Z,2.10
2024-03-08T06:57:41.726Z,2.24
2024-03-08T07:00:12.809Z,2.34
2024-03-08T07:02:41.714Z,2.45
2024-03-08T07:05:12.053Z,2.54
2024-03-08T07:07:42.698Z,2.60
2024-03-08T07:10:15.857Z,2.65
2024-03-08T07:12:44.134Z,2.77
2024-03-08T07:15:15.085Z,2.89
2024-03-08T07:17:45.515Z,2.90
2024-03-08T07:20:14.886Z,3.01
2024-03-08T07:22:44.000Z,3.08
2024-03-08T07:25:22.860Z,3.17
2024-03-08T07:27:52.529Z,3.20
2024-03-08T07:30:34.947Z,3.37
2024-03-08T07:33:04.029Z,3.37
2024-03-08T07:35:32.390Z,3.39
2024-03-08T07:38:01.080Z,3.48
2024-03-08T07:40:30.694Z,3.49
2024-03-08T07:42:59.694Z,3.57
2024-03-08T07:45:27.755Z,3.66
2024-03-08T07:47:57.360Z,3.67
2024-03-08T07:50:25.148Z,3.63
2024-03-08T07:52:53.674Z,3.64
2024-03-08T07:55:21.481Z,3.60
2024-03-08T07:57:51.099Z,3.63
2024-03-08T08:00:19.926Z,3.71
2024-03-08T08:02:47.994Z,3.74
2024-03-08T08:05:16.086Z,3.77
2024-03-08T08:07:49.119Z,3.80
2024-03-08T08:10:19.974Z,3.78
2024-03-08T08:12:48.368Z,3.79
2024-03-08T08:15:17.721Z,3.89
2024-03-08T08:17:45.991Z,4.01
2024-03-08T08:20:14.726Z,4.16
2024-03-08T08:22:44.191Z,4.15
2024-03-08T08:25:14.795Z,4.20
2024-03-08T08:27:44.439Z,4.32
2024-03-08T08:30:15.522Z,4.38
2024-03-08T08:32:45.087Z,4.46
2024-03-08T08:35:14.631Z,4.45
2024-03-08T08:37:43.412Z,4.48
2024-03-08T08:40:16.573Z,4.53
2024-03-08T08:42:45.111Z,4.51
2024-03-08T08:45:16.934Z,4.42
2024-03-08T08:47:48.314Z,4.24
2024-03-08T08:50:17.470Z,4.42
2024-03-08T08:52:46.225Z,4.46
2024-03-08T08:55:16.395Z,4.84
2024-03-08T08:57:45.317Z,4.77
2024-03-08T09:00:16.746Z,5.07
2024-03-08T09:02:45.756Z,4.75
2024-03-08T09:05:23.006Z,5.16
2024-03-08T09:07:51.202Z,5.04
2024-03-08T09:10:19.922Z,5.22
2024-03-08T09:12:48.588Z,5.14
2024-03-08T09:15:21.871Z,5.28
2024-03-08T09:17:50.428Z,5.36
2024-03-08T09:20:20.160Z,5.30
2024-03-08T09:22:48.115Z,5.26
2024-03-08T09:25:16.426Z,5.27
2024-03-08T09:27:44.170Z,5.38
2024-03-08T09:30:16.815Z,5.50
2024-03-08T09:32:45.365Z,5.57
2024-03-08T09:35:13.729Z,5.78
2024-03-08T09:37:43.368Z,5.86
2024-03-08T09:40:12.002Z,6.02
2024-03-08T09:42:40.041Z,5.99
2024-03-08T09:45:11.871Z,5.84
2024-03-08T09:47:42.983Z,5.93
2024-03-08T09:50:13.708Z,5.98
2024-03-08T09:52:44.990Z,5.99
2024-03-08T09:55:13.853Z,5.86
2024-03-08T09:57:43.916Z,5.84
2024-03-08T10:00:25.705Z,6.01
2024-03-08T10:02:55.022Z,6.10
2024-03-08T10:05:24.449Z,6.27
2024-03-08T10:07:54.281Z,6.26
2024-03-08T10:10:23.193Z,6.55
2024-03-08T10:12:51.215Z,6.78
2024-03-08T10:15:19.552Z,6.97
2024-03-08T10:17:47.452Z,6.86
2024-03-08T10:20:17.225Z,6.78
2024-03-08T10:22:54.379Z,6.81
2024-03-08T10:25:32.177Z,6.95
2024-03-08T10:27:59.899Z,7.02
2024-03-08T10:30:29.077Z,6.99
2024-03-08T10:32:57.278Z,7.10
2024-03-08T10:35:25.356Z,7.30
2024-03-08T10:38:00.923Z,7.24
2024-03-08T10:40:30.037Z,7.09
2024-03-08T10:43:00.926Z,7.49
2024-03-08T10:45:38.730Z,7.69
2024-03-08T10:48:36.795Z,7.68
2024-03-08T10:51:08.419Z,7.78
2024-03-08T10:53:40.918Z,7.40
2024-03-08T10:56:10.471Z,7.62
2024-03-08T10:58:40.765Z,7.73
2024-03-08T11:01:11.500Z,7.94
2024-03-08T11:03:54.364Z,8.05
2024-03-08T11:06:31.661Z,8.26
2024-03-08T11:08:59.691Z,7.91
2024-03-08T11:11:34.218Z,8.12
2024-03-08T11:14:05.780Z,8.90
2024-03-08T11:16:44.273Z,9.12
2024-03-08T11:19:27.182Z,9.52
2024-03-08T11:22:03.029Z,9.77
2024-03-08T11:24:41.432Z,10.59
2024-03-08T11:27:10.918Z,10.81
2024-03-08T11:29:41.343Z,11.32
2024-03-08T11:32:14.254Z,11.50
2024-03-08T11:34:45.972Z,10.98
2024-03-08T11:37:16.960Z,10.47
2024-03-08T11:39:53.330Z,10.25
2024-03-08T11:42:23.090Z,10.69
2024-03-08T11:44:53.460Z,11.12
2024-03-08T11:47:22.003Z,11.43
2024-03-08T11:49:50.348Z,11.68
2024-03-08T11:52:19.925Z,11.89
2024-03-08T11:54:55.768Z,12.04
2024-03-08T11:57:25.485Z,11.89
2024-03-08T11:59:57.634Z,11.73
2024-03-08T12:02:26.167Z,11.95
2024-03-08T12:04:58.790Z,12.19
2024-03-08T12:07:26.630Z,12.44
2024-03-08T12:10:18.631Z,12.03
2024-03-08T12:12:48.074Z,12.62
2024-03-08T12:15:16.853Z,13.21
2024-03-08T12:17:44.993Z,13.70
2024-03-08T12:20:18.248Z,14.54
2024-03-08T12:22:50.181Z,14.81
2024-03-08T12:25:18.096Z,14.53
2024-03-08T12:27:47.178Z,14.20
2024-03-08T12:30:28.193Z,13.92
2024-03-08T12:32:59.079Z,14.55
2024-03-08T12:35:28.637Z,15.09
2024-03-08T12:37:58.505Z,15.15
2024-03-08T12:40:33.463Z,13.87
2024-03-08T12:43:01.579Z,13.90
2024-03-08T12:45:30.939Z,14.26
2024-03-08T12:48:00.686Z,14.26
2024-03-08T12:50:28.549Z,13.93
2024-03-08T12:52:57.040Z,14.63
2024-03-08T12:55:25.323Z,15.33
2024-03-08T12:57:54.334Z,14.83
2024-03-08T13:00:24.756Z,14.90
2024-03-08T13:02:54.261Z,15.19
2024-03-08T13:05:22.743Z,15.79
2024-03-08T13:07:50.960Z,15.71
2024-03-08T13:10:21.831Z,15.64
2024-03-08T13:12:52.956Z,14.80
2024-03-08T13:15:23.759Z,14.90
2024-03-08T13:17:52.007Z,15.46
2024-03-08T13:20:27.955Z,15.28
2024-03-08T13:23:03.206Z,15.60
2024-03-08T13:25:31.135Z,14.82
2024-03-08T13:28:00.827Z,14.75
2024-03-08T13:30:28.857Z,14.15
2024-03-08T13:32:56.745Z,14.21
2024-03-08T13:35:31.535Z,14.31
2024-03-08T13:37:59.596Z,13.87
2024-03-08T13:40:27.486Z,14.00
2024-03-08T13:42:55.382Z,14.13
2024-03-08T13:45:25.786Z,14.24
2024-03-08T13:47:56.207Z,14.34
2024-03-08T13:50:24.634Z,14.59
2024-03-08T13:52:56.568Z,14.66
2024-03-08T13:55:26.804Z,14.96
2024-03-08T13:57:55.571Z,15.53
2024-03-08T14:00:24.423Z,15.87
2024-03-08T14:02:52.381Z,16.29
2024-03-08T14:05:21.170Z,16.32
2024-03-08T14:07:50.744Z,16.71
2024-03-08T14:10:21.773Z,16.44
2024-03-08T14:12:52.083Z,16.20
2024-03-08T14:15:21.661Z,15.75
2024-03-08T14:17:54.928Z,16.17
2024-03-08T14:20:26.426Z,15.91
2024-03-08T14:22:54.747Z,15.95
2024-03-08T14:25:26.762Z,16.36
2024-03-08T14:27:59.289Z,16.68
2024-03-08T14:30:42.176Z,17.77
2024-03-08T14:33:10.934Z,18.38
2024-03-08T14:35:39.191Z,18.34
2024-03-08T14:38:09.602Z,18.62
2024-03-08T14:40:39.777Z,19.00
2024-03-08T14:43:07.792Z,18.61
2024-03-08T14:45:36.017Z,18.81
2024-03-08T14:48:05.873Z,18.84
2024-03-08T14:50:34.298Z,19.07
2024-03-08T14:53:07.724Z,18.78
2024-03-08T14:55:36.119Z,18.43
2024-03-08T14:58:06.084Z,18.51
2024-03-08T15:00:36.069Z,18.55
2024-03-08T15:03:06.246Z,18.75
2024-03-08T15:05:38.956Z,18.08
2024-03-08T15:08:12.401Z,18.38
2024-03-08T15:10:41.994Z,18.26
2024-03-08T15:13:23.143Z,18.17
2024-03-08T15:15:56.058Z,18.36
2024-03-08T15:18:30.951Z,18.31
2024-03-08T15:20:58.807Z,18.28
2024-03-08T15:23:27.175Z,18.53
2024-03-08T15:25:55.773Z,18.37
2024-03-08T15:28:31.986Z,18.45
2024-03-08T15:31:06.514Z,18.33
2024-03-08T15:33:38.261Z,18.38
2024-03-08T15:36:10.739Z,18.28
2024-03-08T15:38:39.144Z,18.13
2024-03-08T15:41:11.143Z,18.17
2024-03-08T15:43:42.490Z,18.43
2024-03-08T15:46:11.646Z,17.49
2024-03-08T15:48:41.726Z,17.76
2024-03-08T15:51:12.408Z,17.23
2024-03-08T15:53:40.677Z,17.37
2024-03-08T15:56:10.724Z,16.67
2024-03-08T15:58:40.289Z,16.91
2024-03-08T16:01:08.985Z,16.82
2024-03-08T16:03:37.551Z,15.85
2024-03-08T16:06:07.498Z,14.91
2024-03-08T16:08:38.623Z,14.77
2024-03-08T16:11:07.939Z,14.16
2024-03-08T16:13:39.486Z,13.51
2024-03-08T16:16:09.450Z,13.04
2024-03-08T16:18:39.266Z,12.66
2024-03-08T16:21:08.955Z,12.06
2024-03-08T16:23:37.802Z,12.02
2024-03-08T16:26:07.698Z,11.54
2024-03-08T16:28:41.486Z,11.63
2024-03-08T16:31:12.081Z,11.58
2024-03-08T16:33:41.441Z,11.44
2024-03-08T16:36:12.082Z,11.31
2024-03-08T16:38:40.808Z,11.40
2024-03-08T16:41:09.012Z,11.32
2024-03-08T16:43:38.017Z,10.77
2024-03-08T16:46:06.281Z,10.44
2024-03-08T16:48:37.228Z,10.34
2024-03-08T16:51:10.273Z,10.06
2024-03-08T16:53:42.126Z,9.77
2024-03-08T16:56:13.807Z,9.52
2024-03-08T16:58:44.535Z,9.27
2024-03-08T17:01:13.085Z,9.13
2024-03-08T17:03:52.002Z,8.73
2024-03-08T17:06:27.289Z,8.41
2024-03-08T17:08:55.397Z,8.46
2024-03-08T17:11:25.341Z,8.55
2024-03-08T17:13:53.581Z,8.45
2024-03-08T17:16:25.876Z,8.26
2024-03-08T17:18:55.963Z,8.13
2024-03-08T17:21:25.903Z,7.98
2024-03-08T17:23:54.134Z,7.81
2024-03-08T17:26:22.462Z,7.63
2024-03-08T17:28:51.438Z,7.49
2024-03-08T17:31:20.410Z,7.33
2024-03-08T17:33:49.005Z,7.34
2024-03-08T17:36:20.554Z,7.22
2024-03-08T17:38:51.419Z,7.06
2024-03-08T17:41:24.775Z,7.00
2024-03-08T17:43:53.630Z,6.86
2024-03-08T17:46:22.159Z,6.97
2024-03-08T17:48:50.162Z,6.80
2024-03-08T17:51:19.334Z,6.73
2024-03-08T17:53:49.587Z,6.66
2024-03-08T17:56:17.576Z,6.69
2024-03-08T17:58:46.362Z,6.75
2024-03-08T18:01:15.029Z,6.62
2024-03-08T18:03:43.333Z,6.43
2024-03-08T18:06:11.420Z,6.42
2024-03-08T18:08:43.945Z,6.38
2024-03-08T18:11:11.960Z,6.25
2024-03-08T18:13:40.266Z,6.21
2024-03-08T18:16:09.191Z,6.27
2024-03-08T18:18:38.145Z,6.19
2024-03-08T18:21:07.088Z,6.13
2024-03-08T18:23:35.327Z,6.22
2024-03-08T18:26:04.796Z,6.16
2024-03-08T18:28:33.228Z,6.34
2024-03-08T18:31:02.006Z,6.39
2024-03-08T18:33:33.589Z,6.23
2024-03-08T18:36:01.904Z,6.16
2024-03-08T18:38:29.786Z,6.21
2024-03-08T18:40:58.989Z,6.22
2024-03-08T18:43:28.972Z,6.12
2024-03-08T18:45:58.852Z,6.18
2024-03-08T18:48:27.694Z,6.15
2024-03-08T18:50:55.740Z,6.09
2024-03-08T18:53:24.362Z,6.06
2024-03-08T18:55:52.776Z,5.96
2024-03-08T18:58:30.570Z,6.04
2024-03-08T19:01:06.443Z,5.97
2024-03-08T19:03:35.687Z,5.92
2024-03-08T19:06:04.046Z,5.95
2024-03-08T19:08:37.086Z,6.06
2024-03-08T19:11:05.981Z,5.94
2024-03-08T19:13:34.521Z,5.85
2024-03-08T19:16:02.420Z,5.85
2024-03-08T19:18:31.584Z,5.63
2024-03-08T19:21:01.261Z,5.66
2024-03-08T19:23:32.236Z,5.66
2024-03-08T19:26:02.244Z,5.60
2024-03-08T19:28:35.607Z,5.59
2024-03-08T19:31:18.560Z,5.56
2024-03-08T19:33:54.961Z,5.38
2024-03-08T19:36:26.305Z,5.40
2024-03-08T19:38:55.925Z,5.39
2024-03-08T19:41:25.367Z,5.37
2024-03-08T19:43:53.343Z,5.29
2024-03-08T19:46:22.492Z,5.28
2024-03-08T19:48:51.741Z,5.08
2024-03-08T19:51:19.812Z,5.13
2024-03-08T19:53:50.348Z,5.09
2024-03-08T19:56:18.610Z,4.99
2024-03-08T19:58:48.598Z,4.90
2024-03-08T20:01:16.845Z,4.85
2024-03-08T20:03:45.583Z,4.78
2024-03-08T20:06:14.711Z,4.68
2024-03-08T20:08:43.245Z,4.70
2024-03-08T20:11:12.136Z,4.52
2024-03-08T20:13:40.928Z,4.70
2024-03-08T20:16:10.982Z,4.69
2024-03-08T20:18:39.363Z,4.70
2024-03-08T20:21:07.694Z,4.71
2024-03-08T20:23:37.266Z,4.72
2024-03-08T20:26:12.562Z,4.74
2024-03-08T20:28:42.983Z,4.71
2024-03-08T20:31:11.956Z,4.70
2024-03-08T20:33:42.320Z,4.82
2024-03-08T20:36:12.178Z,5.01
2024-03-08T20:38:42.589Z,5.12
2024-03-08T20:41:12.633Z,5.25
2024-03-08T20:43:41.754Z,5.29
2024-03-08T20:46:09.563Z,5.34
2024-03-08T20:48:37.679Z,5.43
2024-03-08T20:51:07.751Z,5.49
2024-03-08T20:53:35.878Z,5.48
2024-03-08T20:56:05.536Z,5.43
2024-03-08T20:58:33.393Z,5.37
2024-03-08T21:01:05.110Z,5.44
2024-03-08T21:03:33.086Z,5.44
2024-03-08T21:06:00.786Z,5.52
2024-03-08T21:08:29.662Z,5.49
2024-03-08T21:11:00.317Z,5.43
2024-03-08T21:13:29.689Z,5.40
2024-03-08T21:15:59.253Z,5.12
2024-03-08T21:18:27.994Z,5.33
2024-03-08T21:20:57.222Z,5.33
2024-03-08T21:23:26.574Z,5.29
2024-03-08T21:25:55.241Z,5.32
2024-03-08T21:28:30.253Z,5.31
2024-03-08T21:31:01.992Z,5.27
2024-03-08T21:33:30.632Z,5.31
2024-03-08T21:36:00.694Z,5.19
2024-03-08T21:38:28.565Z,5.06
2024-03-08T21:41:02.738Z,4.99
2024-03-08T21:43:36.377Z,4.82
2024-03-08T21:46:06.057Z,4.81
2024-03-08T21:48:34.425Z,4.75
2024-03-08T21:51:02.250Z,4.71
2024-03-08T21:53:35.069Z,4.77
2024-03-08T21:56:04.763Z,4.77
2024-03-08T21:58:35.219Z,4.40
2024-03-08T22:01:06.030Z,4.65
2024-03-08T22:03:37.077Z,4.56
2024-03-08T22:06:11.246Z,4.38
2024-03-08T22:08:42.176Z,4.43
2024-03-08T22:11:10.592Z,4.33
2024-03-08T22:13:38.710Z,4.23
2024-03-08T22:16:07.103Z,4.24
2024-03-08T22:18:38.772Z,4.13
2024-03-08T22:21:08.148Z,4.05
2024-03-08T22:23:35.899Z,4.06
2024-03-08T22:26:08.637Z,4.05
2024-03-08T22:28:36.761Z,4.04
2024-03-08T22:31:07.535Z,4.00
2024-03-08T22:33:36.967Z,3.98
2024-03-08T22:36:08.364Z,3.92
2024-03-08T22:38:36.692Z,3.89
2024-03-08T22:41:04.630Z,3.87
2024-03-08T22:43:33.095Z,3.91
2024-03-08T22:46:01.008Z,3.85
2024-03-08T22:48:29.112Z,3.87
2024-03-08T22:50:59.257Z,3.89
2024-03-08T22:53:29.290Z,3.84
2024-03-08T22:55:57.440Z,3.87
2024-03-08T22:58:25.191Z,3.97
2024-03-08T23:01:03.412Z,3.89
2024-03-08T23:03:35.604Z,4.03
2024-03-08T23:06:05.705Z,4.06
2024-03-08T23:08:33.988Z,4.04
2024-03-08T23:11:02.909Z,3.71
2024-03-08T23:13:30.969Z,3.95
2024-03-08T23:16:02.669Z,3.82
2024-03-08T23:18:31.282Z,3.86
2024-03-08T23:20:59.012Z,3.87
2024-03-08T23:23:28.493Z,3.81
2024-03-08T23:25:56.476Z,3.87
2024-03-08T23:28:24.933Z,3.80
2024-03-08T23:30:53.642Z,3.75
2024-03-08T23:33:21.491Z,3.15
2024-03-08T23:35:49.788Z,3.63
2024-03-08T23:38:19.616Z,3.83
2024-03-08T23:40:49.432Z,4.07
2024-03-08T23:43:18.502Z,4.21
2024-03-08T23:45:46.448Z,4.20
2024-03-08T23:48:16.015Z,4.08
2024-03-08T23:50:44.396Z,4.07
2024-03-08T23:53:12.787Z,3.97
2024-03-08T23:55:40.689Z,3.70
2024-03-08T23:58:12.305Z,3.64
